EGNV METAR and TAF | Updated Today

EGNV METAR

Durham Tees Valley Airport

Observation time: 20 min. ago

EGNV 291050Z 36014KT 9999 -SHRA SCT020 SCT032 09/06 Q1022

Need help? Read our tutorial on how to read METARs or read the parsed version below.

Durham Tees Valley Airport (EGNV) METAR

  • Weather conditions on Sun, 29 May 2022 10:50:00 +0000 (20 min. ago):
  • Present conditions: Light showers of rain
  • Clouds: Scattered at 610 meters; scattered at 975 meters
  • Visibility: Greater than 10 km
  • Wind: 360 degrees at 14 knots
  • Temperature: 9 celsius
  • Dew point: 6 celsius
  • Pressure: 1022 millibars
  • Remarks: None


Useful to know...

EGNV TAF

Durham Tees Valley Airport

TAF EGNV 290801Z 2909/2918 35011KT 9999 SCT030 PROB30 TEMPO 2909/2913 7000 SHRA BKN014 BECMG 2916/2918 VRB03KT
Observation time: 3:09 hr. ago
Need help? Read our tutorial on how to read TAFs or read the parsed version below.

Parsed version of TAF for Durham Tees Valley Airport (EGNV)

  • From 29 May at 09:00 UTC, to day 29 of the month at 18:00 UTC
  • Clouds: Scattered at 914 meters
  • Visibility: Greater than 10 km
  • Wind: 350 degrees at 11
  • Expected to arise temporarily, from 29 May at 09:00 UTC, to day 29 of the month at 13:00 UTC
    Probability of 30%
  • Clouds: Broken sky at 427 meters
  • Visibility: 7000 meters
  • Other: Showers of rain
  • Expected to arise soon, from 29 May at 16:00 UTC, to day 29 of the month at 18:00 UTC
  • Wind: Variable at 3